createdAt,value
2022-12-08T00:01:14.327Z,45.68
2022-12-08T00:02:16.212Z,45.47
2022-12-08T00:03:18.025Z,45.89
2022-12-08T00:04:19.825Z,45.81
2022-12-08T00:05:39.963Z,45.87
2022-12-08T00:07:02.353Z,45.91
2022-12-08T00:08:22.482Z,45.67
2022-12-08T00:09:39.429Z,45.98
2022-12-08T00:10:49.615Z,45.57
2022-12-08T00:12:06.239Z,45.97
2022-12-08T00:13:07.769Z,45.53
2022-12-08T00:14:09.347Z,45.81
2022-12-08T00:15:10.921Z,45.53
2022-12-08T00:16:12.722Z,45.47
2022-12-08T00:17:16.445Z,45.57
2022-12-08T00:18:17.979Z,45.68
2022-12-08T00:19:19.685Z,45.85
2022-12-08T00:20:21.252Z,45.67
2022-12-08T00:21:22.847Z,45.26
2022-12-08T00:22:24.466Z,45.70
2022-12-08T00:23:26.775Z,45.73
2022-12-08T00:24:35.880Z,45.52
2022-12-08T00:25:37.499Z,45.48
2022-12-08T00:26:39.156Z,45.60
2022-12-08T00:27:40.745Z,45.29
2022-12-08T00:28:42.334Z,45.37
2022-12-08T00:29:45.582Z,45.68
2022-12-08T00:30:47.191Z,45.50
2022-12-08T00:31:48.922Z,45.38
2022-12-08T00:32:50.585Z,45.63
2022-12-08T00:33:52.156Z,45.60
2022-12-08T00:34:53.713Z,45.51
2022-12-08T00:35:55.373Z,45.68
2022-12-08T00:36:56.967Z,45.69
2022-12-08T00:38:00.968Z,45.40
2022-12-08T00:39:02.865Z,45.44
2022-12-08T00:40:05.209Z,45.68
2022-12-08T00:41:16.050Z,45.41
2022-12-08T00:42:17.703Z,45.35
2022-12-08T00:43:19.387Z,45.62
2022-12-08T00:44:21.025Z,45.57
2022-12-08T00:45:23.029Z,45.43
2022-12-08T00:46:24.710Z,45.34
2022-12-08T00:47:26.306Z,45.72
2022-12-08T00:48:27.883Z,45.43
2022-12-08T00:49:29.449Z,45.77
2022-12-08T00:50:31.023Z,45.74
2022-12-08T00:51:32.999Z,45.73
2022-12-08T00:52:34.624Z,45.74
2022-12-08T00:53:36.243Z,45.50
2022-12-08T00:54:37.831Z,45.39
2022-12-08T00:55:39.417Z,45.34
2022-12-08T00:56:41.008Z,45.41
2022-12-08T00:57:42.567Z,45.67
2022-12-08T00:58:44.157Z,45.74
2022-12-08T00:59:45.693Z,45.45
2022-12-08T01:00:47.365Z,45.73
2022-12-08T01:01:49.320Z,45.39
2022-12-08T01:02:51.041Z,45.43
2022-12-08T01:03:53.409Z,45.56
2022-12-08T01:04:55.031Z,45.44
2022-12-08T01:05:56.609Z,45.75
2022-12-08T01:06:58.193Z,45.38
2022-12-08T01:07:59.764Z,45.63
2022-12-08T01:09:02.785Z,45.38
2022-12-08T01:10:05.193Z,45.62
2022-12-08T01:11:10.515Z,45.68
2022-12-08T01:12:12.058Z,45.60
2022-12-08T01:13:13.660Z,45.40
2022-12-08T01:14:15.551Z,45.51
2022-12-08T01:15:17.190Z,45.28
2022-12-08T01:16:20.611Z,45.71
2022-12-08T01:17:22.398Z,45.59
2022-12-08T01:18:23.990Z,45.61
2022-12-08T01:19:25.750Z,45.72
2022-12-08T01:20:28.027Z,45.68
2022-12-08T01:21:29.957Z,45.36
2022-12-08T01:22:33.354Z,45.62
2022-12-08T01:23:35.143Z,45.48
2022-12-08T01:24:36.711Z,45.71
2022-12-08T01:25:38.311Z,45.38
2022-12-08T01:26:40.378Z,45.69
2022-12-08T01:27:42.016Z,45.31
2022-12-08T01:28:43.890Z,45.45
2022-12-08T01:29:45.446Z,45.60
2022-12-08T01:30:47.034Z,45.59
2022-12-08T01:31:48.671Z,45.29
2022-12-08T01:32:50.261Z,45.52
2022-12-08T01:33:51.902Z,45.50
2022-12-08T01:34:53.449Z,45.22
2022-12-08T01:35:55.572Z,45.27
2022-12-08T01:36:57.122Z,45.61
2022-12-08T01:37:58.670Z,45.15
2022-12-08T01:39:02.130Z,45.29
2022-12-08T01:40:04.250Z,45.48
2022-12-08T01:41:06.089Z,45.23
2022-12-08T01:42:19.957Z,45.48
2022-12-08T01:43:21.624Z,45.49
2022-12-08T01:44:43.103Z,45.24
2022-12-08T01:45:44.835Z,45.58
2022-12-08T01:46:49.616Z,45.15
2022-12-08T01:48:06.147Z,45.58
2022-12-08T01:49:13.504Z,45.26
2022-12-08T01:50:17.256Z,45.47
2022-12-08T01:51:19.915Z,45.25
2022-12-08T01:52:35.611Z,45.40
2022-12-08T01:53:37.771Z,45.43
2022-12-08T01:55:03.212Z,45.61
2022-12-08T01:56:11.612Z,45.20
2022-12-08T01:57:44.821Z,45.45
2022-12-08T01:58:52.903Z,45.16
2022-12-08T02:00:02.805Z,45.29
2022-12-08T02:01:05.179Z,45.31
2022-12-08T02:02:08.013Z,45.56
2022-12-08T02:03:18.620Z,45.14
2022-12-08T02:04:20.183Z,45.13
2022-12-08T02:05:27.044Z,45.55
2022-12-08T02:06:33.730Z,45.18
2022-12-08T02:07:36.151Z,45.12
2022-12-08T02:08:40.519Z,45.07
2022-12-08T02:09:42.907Z,45.49
2022-12-08T02:10:44.541Z,45.42
2022-12-08T02:11:46.383Z,45.12
2022-12-08T02:12:50.623Z,45.08
2022-12-08T02:13:54.489Z,45.08
2022-12-08T02:14:58.416Z,45.12
2022-12-08T02:16:28.537Z,45.32
2022-12-08T02:17:42.566Z,45.38
2022-12-08T02:19:30.750Z,45.06
2022-12-08T02:20:47.480Z,45.36
2022-12-08T02:22:06.644Z,45.06
2022-12-08T02:23:24.142Z,45.05
2022-12-08T02:24:33.918Z,45.35
2022-12-08T02:26:17.311Z,45.12
2022-12-08T02:27:43.097Z,45.38
2022-12-08T02:29:02.579Z,45.38
2022-12-08T02:30:17.584Z,45.41
2022-12-08T02:32:00.722Z,45.13
2022-12-08T02:33:17.524Z,45.27
2022-12-08T02:34:38.976Z,44.92
2022-12-08T02:35:56.945Z,45.40
2022-12-08T02:37:11.514Z,45.18
2022-12-08T02:38:35.036Z,45.21
2022-12-08T02:39:48.388Z,45.34
2022-12-08T02:40:59.069Z,45.08
2022-12-08T02:42:21.878Z,45.12
2022-12-08T02:43:35.778Z,45.23
2022-12-08T02:44:55.431Z,45.20
2022-12-08T02:46:05.539Z,45.43
2022-12-08T02:47:19.239Z,45.25
2022-12-08T02:48:21.096Z,44.96
2022-12-08T02:49:28.894Z,45.45
2022-12-08T02:50:30.405Z,45.05
2022-12-08T02:51:32.075Z,45.20
2022-12-08T02:52:33.576Z,45.20
2022-12-08T02:53:36.444Z,44.88
2022-12-08T02:54:41.967Z,44.93
2022-12-08T02:56:18.309Z,45.34
2022-12-08T02:57:37.446Z,45.22
2022-12-08T02:59:15.696Z,45.24
2022-12-08T03:00:20.435Z,44.79
2022-12-08T03:01:50.455Z,44.89
2022-12-08T03:03:04.314Z,45.00
2022-12-08T03:04:34.303Z,45.11
2022-12-08T03:05:56.018Z,44.86
2022-12-08T03:07:27.866Z,45.24
2022-12-08T03:08:44.820Z,44.88
2022-12-08T03:10:09.363Z,45.17
2022-12-08T03:11:15.016Z,45.24
2022-12-08T03:12:23.839Z,44.94
2022-12-08T03:13:45.730Z,45.22
2022-12-08T03:14:52.755Z,45.15
2022-12-08T03:15:55.974Z,45.05
2022-12-08T03:16:59.602Z,44.81
2022-12-08T03:18:01.241Z,45.15
2022-12-08T03:19:21.481Z,45.10
2022-12-08T03:20:25.708Z,45.22
2022-12-08T03:21:27.527Z,44.92
2022-12-08T03:22:29.391Z,45.10
2022-12-08T03:23:31.481Z,44.78
2022-12-08T03:24:36.900Z,45.04
2022-12-08T03:25:44.907Z,44.81
2022-12-08T03:26:51.870Z,44.68
2022-12-08T03:27:54.151Z,45.13
2022-12-08T03:28:56.378Z,44.88
2022-12-08T03:30:00.359Z,44.77
2022-12-08T03:31:07.646Z,44.89
2022-12-08T03:32:20.213Z,44.76
2022-12-08T03:33:35.689Z,45.02
2022-12-08T03:34:40.238Z,44.76
2022-12-08T03:35:43.192Z,45.01
2022-12-08T03:36:45.922Z,44.71
2022-12-08T03:37:47.481Z,44.75
2022-12-08T03:38:52.993Z,45.00
2022-12-08T03:39:54.985Z,44.77
2022-12-08T03:41:28.886Z,44.59
2022-12-08T03:42:30.524Z,44.69
2022-12-08T03:43:32.159Z,44.97
2022-12-08T03:44:33.713Z,44.79
2022-12-08T03:45:35.256Z,44.71
2022-12-08T03:46:36.944Z,44.55
2022-12-08T03:47:38.508Z,44.58
2022-12-08T03:48:40.480Z,44.72
2022-12-08T03:49:42.059Z,44.59
2022-12-08T03:50:43.668Z,44.87
2022-12-08T03:51:45.350Z,44.52
2022-12-08T03:52:47.024Z,44.79
2022-12-08T03:53:49.428Z,44.46
2022-12-08T03:54:51.008Z,44.51
2022-12-08T03:55:53.847Z,44.50
2022-12-08T03:56:55.446Z,44.51
2022-12-08T03:57:56.978Z,44.68
2022-12-08T03:58:59.066Z,44.50
2022-12-08T04:00:00.777Z,44.56
2022-12-08T04:01:02.360Z,44.91
2022-12-08T04:02:04.184Z,44.76
2022-12-08T04:03:06.440Z,44.83
2022-12-08T04:04:08.062Z,44.60
2022-12-08T04:05:09.819Z,44.53
2022-12-08T04:06:11.474Z,44.91
2022-12-08T04:07:13.097Z,44.85
2022-12-08T04:08:14.718Z,44.92
2022-12-08T04:09:16.369Z,44.66
2022-12-08T04:10:17.959Z,44.88
2022-12-08T04:11:20.275Z,44.54
2022-12-08T04:12:21.898Z,44.85
2022-12-08T04:13:23.839Z,44.76
2022-12-08T04:14:25.389Z,44.67
2022-12-08T04:15:27.022Z,44.96
2022-12-08T04:16:28.815Z,44.87
2022-12-08T04:17:30.548Z,44.56
2022-12-08T04:18:32.991Z,44.58
2022-12-08T04:19:34.555Z,44.70
2022-12-08T04:20:40.095Z,44.59
2022-12-08T04:21:41.633Z,44.85
2022-12-08T04:22:43.166Z,44.84
2022-12-08T04:23:46.191Z,44.59
2022-12-08T04:24:47.706Z,44.52
2022-12-08T04:25:50.749Z,44.67
2022-12-08T04:26:52.296Z,44.47
2022-12-08T04:27:53.879Z,44.72
2022-12-08T04:28:55.469Z,44.55
2022-12-08T04:29:57.033Z,44.65
2022-12-08T04:30:58.733Z,44.63
2022-12-08T04:32:00.457Z,44.69
2022-12-08T04:33:01.997Z,44.60
2022-12-08T04:34:04.051Z,44.56
2022-12-08T04:35:05.946Z,45.00
2022-12-08T04:36:08.325Z,44.82
2022-12-08T04:37:09.869Z,44.83
2022-12-08T04:38:11.638Z,44.78
2022-12-08T04:39:13.211Z,44.83
2022-12-08T04:40:15.359Z,44.76
2022-12-08T04:41:17.004Z,44.59
2022-12-08T04:42:18.665Z,44.63
2022-12-08T04:43:20.479Z,44.57
2022-12-08T04:44:22.053Z,44.55
2022-12-08T04:45:23.716Z,44.92
2022-12-08T04:46:25.446Z,44.88
2022-12-08T04:47:27.050Z,44.68
2022-12-08T04:48:28.676Z,44.59
2022-12-08T04:49:30.440Z,44.69
2022-12-08T04:50:32.058Z,44.89
2022-12-08T04:51:33.635Z,44.97
2022-12-08T04:52:35.429Z,44.83
2022-12-08T04:53:38.385Z,44.74
2022-12-08T04:54:42.458Z,44.58
2022-12-08T04:55:45.196Z,44.59
2022-12-08T04:56:46.746Z,44.90
2022-12-08T04:57:48.321Z,44.87
2022-12-08T04:58:49.873Z,44.67
2022-12-08T04:59:51.448Z,44.80
2022-12-08T05:00:53.160Z,44.56
2022-12-08T05:01:55.072Z,44.95
2022-12-08T05:02:56.817Z,44.90
2022-12-08T05:03:58.409Z,44.98
2022-12-08T05:05:00.049Z,44.62
2022-12-08T05:06:02.485Z,44.87
2022-12-08T05:07:04.177Z,44.54
2022-12-08T05:08:06.242Z,44.57
2022-12-08T05:09:07.852Z,44.61
2022-12-08T05:10:09.625Z,44.87
2022-12-08T05:11:12.507Z,44.90
2022-12-08T05:12:14.056Z,44.91
2022-12-08T05:13:15.618Z,44.67
2022-12-08T05:14:19.055Z,44.58
2022-12-08T05:15:20.667Z,45.05
2022-12-08T05:16:22.297Z,44.54
2022-12-08T05:17:23.920Z,44.69
2022-12-08T05:18:25.473Z,44.92
2022-12-08T05:19:27.050Z,44.88
2022-12-08T05:20:28.619Z,44.87
2022-12-08T05:21:30.350Z,44.79
2022-12-08T05:22:31.947Z,44.46
2022-12-08T05:23:33.531Z,44.47
2022-12-08T05:24:35.248Z,44.59
2022-12-08T05:25:36.825Z,44.92
2022-12-08T05:26:38.479Z,44.55
2022-12-08T05:27:40.060Z,44.62
2022-12-08T05:28:43.038Z,44.78
2022-12-08T05:29:45.281Z,44.52
2022-12-08T05:30:47.158Z,44.63
2022-12-08T05:31:48.980Z,44.51
2022-12-08T05:32:50.585Z,44.53
2022-12-08T05:33:52.665Z,44.87
2022-12-08T05:34:54.264Z,44.90
2022-12-08T05:35:55.952Z,44.70
2022-12-08T05:36:57.557Z,44.80
2022-12-08T05:37:59.141Z,44.45
2022-12-08T05:39:00.681Z,44.85
2022-12-08T05:40:02.543Z,44.50
2022-12-08T05:41:06.450Z,44.52
2022-12-08T05:42:08.071Z,44.59
2022-12-08T05:43:11.062Z,44.81
2022-12-08T05:44:12.593Z,44.88
2022-12-08T05:45:14.178Z,44.80
2022-12-08T05:46:16.576Z,44.49
2022-12-08T05:47:18.232Z,44.55
2022-12-08T05:48:19.851Z,44.58
2022-12-08T05:49:21.470Z,44.55
2022-12-08T05:50:22.993Z,44.78
2022-12-08T05:51:24.757Z,44.65
2022-12-08T05:52:26.317Z,44.76
2022-12-08T05:53:28.293Z,44.45
2022-12-08T05:54:30.376Z,44.97
2022-12-08T05:55:31.970Z,44.62
2022-12-08T05:56:33.574Z,44.94
2022-12-08T05:57:35.691Z,44.66
2022-12-08T05:58:37.269Z,44.97
2022-12-08T05:59:39.522Z,44.79
2022-12-08T06:00:41.649Z,44.62
2022-12-08T06:01:43.260Z,44.57
2022-12-08T06:02:44.967Z,44.49
2022-12-08T06:03:46.598Z,44.52
2022-12-08T06:04:48.161Z,44.81
2022-12-08T06:05:49.785Z,44.77
2022-12-08T06:06:51.332Z,44.72
2022-12-08T06:07:53.658Z,44.42
2022-12-08T06:08:55.366Z,44.74
2022-12-08T06:09:56.949Z,44.85
2022-12-08T06:10:58.733Z,44.85
2022-12-08T06:12:01.776Z,44.41
2022-12-08T06:13:03.365Z,44.65
2022-12-08T06:14:05.173Z,44.63
2022-12-08T06:15:07.281Z,44.44
2022-12-08T06:16:08.923Z,44.74
2022-12-08T06:17:10.645Z,44.28
2022-12-08T06:18:12.350Z,44.62
2022-12-08T06:19:13.882Z,44.63
2022-12-08T06:20:15.522Z,44.39
2022-12-08T06:21:17.946Z,44.72
2022-12-08T06:22:19.704Z,44.37
2022-12-08T06:23:21.355Z,44.32
2022-12-08T06:24:23.008Z,44.70
2022-12-08T06:25:25.262Z,44.60
2022-12-08T06:26:26.943Z,44.47
2022-12-08T06:27:28.553Z,44.27
2022-12-08T06:28:31.596Z,44.53
2022-12-08T06:29:33.258Z,44.49
2022-12-08T06:30:35.451Z,44.52
2022-12-08T06:31:37.081Z,44.11
2022-12-08T06:32:38.765Z,44.21
2022-12-08T06:33:40.326Z,44.24
2022-12-08T06:34:41.876Z,44.53
2022-12-08T06:35:43.453Z,44.19
2022-12-08T06:36:45.033Z,44.13
2022-12-08T06:37:46.554Z,44.25
2022-12-08T06:38:48.985Z,44.39
2022-12-08T06:39:51.737Z,44.12
2022-12-08T06:40:57.937Z,44.14
2022-12-08T06:42:18.273Z,44.06
2022-12-08T06:43:19.852Z,44.23
2022-12-08T06:44:21.433Z,44.34
2022-12-08T06:45:23.004Z,44.41
2022-12-08T06:46:24.821Z,44.39
2022-12-08T06:47:26.608Z,44.29
2022-12-08T06:48:28.209Z,44.41
2022-12-08T06:49:29.770Z,44.79
2022-12-08T06:50:32.606Z,44.49
2022-12-08T06:51:34.340Z,44.47
2022-12-08T06:52:43.146Z,44.62
2022-12-08T06:53:47.673Z,44.57
2022-12-08T06:54:49.266Z,44.54
2022-12-08T06:56:01.072Z,44.41
2022-12-08T06:57:02.699Z,44.19
2022-12-08T06:58:04.460Z,44.14
2022-12-08T06:59:05.994Z,44.64
2022-12-08T07:00:08.496Z,44.61
2022-12-08T07:01:13.015Z,44.56
2022-12-08T07:02:14.685Z,44.74
2022-12-08T07:03:16.414Z,44.76
2022-12-08T07:04:18.517Z,44.98
2022-12-08T07:05:20.111Z,44.92
2022-12-08T07:06:24.507Z,44.92
2022-12-08T07:07:26.084Z,45.14
2022-12-08T07:08:27.712Z,44.81
2022-12-08T07:09:29.360Z,45.03
2022-12-08T07:10:31.340Z,44.86
2022-12-08T07:11:33.006Z,44.89
2022-12-08T07:12:34.621Z,45.16
2022-12-08T07:13:36.204Z,45.17
2022-12-08T07:14:37.834Z,44.91
2022-12-08T07:15:39.404Z,45.28
2022-12-08T07:16:41.133Z,44.94
2022-12-08T07:17:42.717Z,44.99
2022-12-08T07:18:44.440Z,45.14
2022-12-08T07:19:46.025Z,45.15
2022-12-08T07:20:47.585Z,45.16
2022-12-08T07:21:49.172Z,45.12
2022-12-08T07:22:52.618Z,44.75
2022-12-08T07:23:57.634Z,44.76
2022-12-08T07:24:59.563Z,45.13
2022-12-08T07:26:06.120Z,44.78
2022-12-08T07:27:07.713Z,45.08
2022-12-08T07:28:12.519Z,44.87
2022-12-08T07:29:14.201Z,44.83
2022-12-08T07:30:15.883Z,45.12
2022-12-08T07:31:24.217Z,44.95
2022-12-08T07:32:25.891Z,44.96
2022-12-08T07:33:28.301Z,44.87
2022-12-08T07:34:29.920Z,45.18
2022-12-08T07:35:34.210Z,45.18
2022-12-08T07:36:36.514Z,45.05
2022-12-08T07:37:38.674Z,45.30
2022-12-08T07:38:40.584Z,44.98
2022-12-08T07:39:43.023Z,45.05
2022-12-08T07:40:44.627Z,45.03
2022-12-08T07:41:46.189Z,45.30
2022-12-08T07:42:47.769Z,45.02
2022-12-08T07:43:49.597Z,45.16
2022-12-08T07:44:51.415Z,45.31
2022-12-08T07:45:53.142Z,45.16
2022-12-08T07:46:54.801Z,45.20
2022-12-08T07:47:56.433Z,45.40
2022-12-08T07:48:58.840Z,45.28
2022-12-08T07:50:00.361Z,45.38
2022-12-08T07:51:03.677Z,45.18
2022-12-08T07:52:05.363Z,45.13
2022-12-08T07:53:07.543Z,45.32
2022-12-08T07:54:12.658Z,45.22
2022-12-08T07:55:14.240Z,45.09
2022-12-08T07:56:15.857Z,45.14
2022-12-08T07:57:17.508Z,45.39
2022-12-08T07:58:19.131Z,45.23
2022-12-08T07:59:20.712Z,45.06
2022-12-08T08:00:22.435Z,45.29
2022-12-08T08:01:27.269Z,45.28
2022-12-08T08:02:28.994Z,45.15
2022-12-08T08:03:30.916Z,45.41
2022-12-08T08:04:32.613Z,45.57
2022-12-08T08:05:34.338Z,45.17
2022-12-08T08:06:37.975Z,45.76
2022-12-08T08:07:43.178Z,46.02
2022-12-08T08:08:45.315Z,46.49
2022-12-08T08:09:46.887Z,46.90
2022-12-08T08:10:48.530Z,46.93
2022-12-08T08:12:14.281Z,47.31
2022-12-08T08:13:12.045Z,47.08
2022-12-08T08:14:13.657Z,47.21
2022-12-08T08:15:15.316Z,47.23
2022-12-08T08:16:17.778Z,47.43
2022-12-08T08:17:19.621Z,47.23
2022-12-08T08:18:21.736Z,47.39
2022-12-08T08:19:23.281Z,47.50
2022-12-08T08:20:24.928Z,47.32
2022-12-08T08:21:45.111Z,47.35
2022-12-08T08:22:49.074Z,47.67
2022-12-08T08:23:50.665Z,47.60
2022-12-08T08:24:52.810Z,47.69
2022-12-08T08:25:54.762Z,47.99
2022-12-08T08:26:56.366Z,48.45
2022-12-08T08:27:57.961Z,48.26
2022-12-08T08:28:59.628Z,48.42
2022-12-08T08:30:01.366Z,48.39
2022-12-08T08:31:03.106Z,48.35
2022-12-08T08:32:04.798Z,48.44
2022-12-08T08:33:06.475Z,48.11
2022-12-08T08:34:09.115Z,48.21
2022-12-08T08:35:10.776Z,47.74
2022-12-08T08:36:12.552Z,47.75
2022-12-08T08:37:14.233Z,47.78
2022-12-08T08:38:15.886Z,47.49
2022-12-08T08:39:17.605Z,47.48
2022-12-08T08:40:19.201Z,47.43
2022-12-08T08:41:20.746Z,47.52
2022-12-08T08:42:22.930Z,47.67
2022-12-08T08:43:37.559Z,48.45
2022-12-08T08:44:39.858Z,48.49
2022-12-08T08:45:41.416Z,49.21
2022-12-08T08:46:43.133Z,49.51
2022-12-08T08:47:44.839Z,49.47
2022-12-08T08:48:46.428Z,49.83
2022-12-08T08:49:47.999Z,49.68
2022-12-08T08:50:49.606Z,50.17
2022-12-08T08:51:51.217Z,49.98
2022-12-08T08:52:53.303Z,49.41
2022-12-08T08:53:54.900Z,49.43
2022-12-08T08:54:56.489Z,49.38
2022-12-08T08:55:58.052Z,49.17
2022-12-08T08:57:01.867Z,49.15
2022-12-08T08:58:03.414Z,49.02
2022-12-08T08:59:05.134Z,49.17
2022-12-08T09:00:10.080Z,49.05
2022-12-08T09:01:17.106Z,48.84
2022-12-08T09:02:19.868Z,48.68
2022-12-08T09:03:21.528Z,48.49
2022-12-08T09:04:23.421Z,48.43
2022-12-08T09:05:25.027Z,48.72
2022-12-08T09:06:28.349Z,48.99
2022-12-08T09:07:30.227Z,48.94
2022-12-08T09:08:32.156Z,48.93
2022-12-08T09:09:33.771Z,48.98
2022-12-08T09:10:35.505Z,48.51
2022-12-08T09:11:37.261Z,48.71
2022-12-08T09:12:38.817Z,48.76
2022-12-08T09:13:40.715Z,48.24
2022-12-08T09:14:42.330Z,48.13
2022-12-08T09:15:43.994Z,48.17
2022-12-08T09:16:45.685Z,48.52
2022-12-08T09:17:47.300Z,48.32
2022-12-08T09:18:49.617Z,48.10
2022-12-08T09:19:51.384Z,48.42
2022-12-08T09:20:54.118Z,48.35
2022-12-08T09:21:55.704Z,48.24
2022-12-08T09:22:57.248Z,48.41
2022-12-08T09:23:59.593Z,48.64
2022-12-08T09:25:01.176Z,48.35
2022-12-08T09:26:05.048Z,48.49
2022-12-08T09:27:06.649Z,48.19
2022-12-08T09:28:08.223Z,48.46
2022-12-08T09:29:11.005Z,48.15
2022-12-08T09:30:12.830Z,48.05
2022-12-08T09:31:14.504Z,48.05
2022-12-08T09:32:16.121Z,48.28
2022-12-08T09:33:17.761Z,48.25
2022-12-08T09:34:19.342Z,47.93
2022-12-08T09:35:20.967Z,48.04
2022-12-08T09:36:22.693Z,47.89
2022-12-08T09:37:24.331Z,47.65
2022-12-08T09:38:26.023Z,47.50
2022-12-08T09:39:27.718Z,47.59
2022-12-08T09:40:33.027Z,47.65
2022-12-08T09:41:49.915Z,47.86
2022-12-08T09:43:10.152Z,47.76
2022-12-08T09:44:38.732Z,47.39
2022-12-08T09:45:40.515Z,47.57
2022-12-08T09:46:43.878Z,47.22
2022-12-08T09:48:13.688Z,47.60
2022-12-08T09:49:18.537Z,47.52
2022-12-08T09:50:30.559Z,47.47
2022-12-08T09:51:38.889Z,47.52
2022-12-08T09:53:08.927Z,47.60
2022-12-08T09:54:13.362Z,47.14
2022-12-08T09:55:24.505Z,47.20
2022-12-08T09:56:31.024Z,47.35
2022-12-08T09:57:32.641Z,47.43
2022-12-08T09:58:44.356Z,47.39
2022-12-08T09:59:52.879Z,47.70
2022-12-08T10:00:54.543Z,47.36
2022-12-08T10:01:56.397Z,47.20
2022-12-08T10:02:58.108Z,47.72
2022-12-08T10:04:00.952Z,47.57
2022-12-08T10:05:02.680Z,47.57
2022-12-08T10:06:08.136Z,47.56
2022-12-08T10:07:23.873Z,47.61
2022-12-08T10:08:32.442Z,47.64
2022-12-08T10:10:25.391Z,47.50
2022-12-08T10:11:38.257Z,47.40
2022-12-08T10:13:00.771Z,47.56
2022-12-08T10:14:37.984Z,47.57
2022-12-08T10:16:07.043Z,47.58
2022-12-08T10:17:20.321Z,47.59
2022-12-08T10:18:31.372Z,47.51
2022-12-08T10:19:34.348Z,47.53
2022-12-08T10:20:40.249Z,47.22
2022-12-08T10:21:42.177Z,47.35
2022-12-08T10:22:48.220Z,47.44
2022-12-08T10:23:53.458Z,47.50
2022-12-08T10:25:11.120Z,47.61
2022-12-08T10:26:16.214Z,47.75
2022-12-08T10:27:17.758Z,47.54
2022-12-08T10:28:19.305Z,47.34
2022-12-08T10:29:20.992Z,47.29
2022-12-08T10:30:22.692Z,47.04
2022-12-08T10:31:25.632Z,47.07
2022-12-08T10:32:34.853Z,47.30
2022-12-08T10:33:36.427Z,47.09
2022-12-08T10:35:01.228Z,47.11
2022-12-08T10:36:04.730Z,46.53
2022-12-08T10:37:10.180Z,46.66
2022-12-08T10:38:38.988Z,46.67
2022-12-08T10:39:45.696Z,46.53
2022-12-08T10:40:49.749Z,46.51
2022-12-08T10:41:51.527Z,46.14
2022-12-08T10:42:57.929Z,46.20
2022-12-08T10:44:01.561Z,46.25
2022-12-08T10:45:28.411Z,46.25
2022-12-08T10:46:31.207Z,45.44
2022-12-08T10:47:37.963Z,45.50
2022-12-08T10:48:52.573Z,45.90
2022-12-08T10:50:23.707Z,45.71
2022-12-08T10:51:28.454Z,45.47
2022-12-08T10:52:30.038Z,45.32
2022-12-08T10:53:33.656Z,45.15
2022-12-08T10:54:38.352Z,45.09
2022-12-08T10:55:45.413Z,45.35
2022-12-08T10:56:54.928Z,45.51
2022-12-08T10:57:56.642Z,45.32
2022-12-08T10:59:19.446Z,45.25
2022-12-08T11:00:26.624Z,45.59
2022-12-08T11:01:36.385Z,45.55
2022-12-08T11:02:51.772Z,45.62
2022-12-08T11:04:01.986Z,45.36
2022-12-08T11:05:03.649Z,45.59
2022-12-08T11:06:28.462Z,45.64
2022-12-08T11:07:30.087Z,45.49
2022-12-08T11:08:31.882Z,45.61
2022-12-08T11:09:48.623Z,45.31
2022-12-08T11:10:50.439Z,45.68
2022-12-08T11:11:57.046Z,45.49
2022-12-08T11:13:01.386Z,45.59
2022-12-08T11:14:07.720Z,45.38
2022-12-08T11:15:16.016Z,45.66
2022-12-08T11:16:19.070Z,45.55
2022-12-08T11:17:26.205Z,45.64
2022-12-08T11:18:30.476Z,45.36
2022-12-08T11:19:36.654Z,45.64
2022-12-08T11:20:41.158Z,45.46
2022-12-08T11:21:46.071Z,45.72
2022-12-08T11:22:56.177Z,45.56
2022-12-08T11:23:57.780Z,45.59
2022-12-08T11:25:04.098Z,45.69
2022-12-08T11:26:33.654Z,45.54
2022-12-08T11:27:37.152Z,45.33
2022-12-08T11:28:39.262Z,45.57
2022-12-08T11:29:41.340Z,45.51
2022-12-08T11:30:47.985Z,45.53
2022-12-08T11:31:59.614Z,45.38
2022-12-08T11:33:23.736Z,45.37
2022-12-08T11:34:40.699Z,45.52
2022-12-08T11:35:45.812Z,45.49
2022-12-08T11:36:47.759Z,45.91
2022-12-08T11:37:49.424Z,45.72
2022-12-08T11:38:59.977Z,45.86
2022-12-08T11:40:07.293Z,45.76
2022-12-08T11:41:16.132Z,46.15
2022-12-08T11:42:23.561Z,46.16
2022-12-08T11:43:33.869Z,46.24
2022-12-08T11:44:45.986Z,46.55
2022-12-08T11:45:54.033Z,46.37
2022-12-08T11:47:06.325Z,46.72
2022-12-08T11:48:44.163Z,46.62
2022-12-08T11:51:03.859Z,46.92
2022-12-08T11:52:30.712Z,46.78
2022-12-08T11:54:07.049Z,47.15
2022-12-08T11:55:37.058Z,46.81
2022-12-08T11:56:51.445Z,46.72
2022-12-08T11:57:54.981Z,46.81
2022-12-08T11:59:01.555Z,47.09
2022-12-08T12:00:04.581Z,47.18
2022-12-08T12:01:08.630Z,46.84
2022-12-08T12:02:20.393Z,46.80
2022-12-08T12:03:31.510Z,46.73
2022-12-08T12:04:42.287Z,47.02
2022-12-08T12:07:36.122Z,46.99
2022-12-08T12:08:44.010Z,46.92
2022-12-08T12:10:04.216Z,46.93
2022-12-08T12:11:50.021Z,47.02
2022-12-08T12:13:19.161Z,47.06
2022-12-08T12:14:45.164Z,46.66
2022-12-08T12:16:08.008Z,47.27
2022-12-08T12:17:24.560Z,47.14
2022-12-08T12:18:35.605Z,47.20
2022-12-08T12:19:39.939Z,47.23
2022-12-08T12:20:59.235Z,47.46
2022-12-08T12:22:17.263Z,47.17
2022-12-08T12:23:24.836Z,46.98
2022-12-08T12:24:36.272Z,47.06
2022-12-08T12:25:45.165Z,47.20
2022-12-08T12:27:22.291Z,47.11
2022-12-08T12:28:30.951Z,46.94
2022-12-08T12:29:35.738Z,47.15
2022-12-08T12:30:57.566Z,47.07
2022-12-08T12:32:07.270Z,46.74
2022-12-08T12:33:13.428Z,46.75
2022-12-08T12:34:19.673Z,47.17
2022-12-08T12:35:42.130Z,46.91
2022-12-08T12:37:08.857Z,46.93
2022-12-08T12:39:03.511Z,47.15
2022-12-08T12:40:27.719Z,46.73
2022-12-08T12:41:32.578Z,46.90
2022-12-08T12:42:55.763Z,46.99
2022-12-08T12:44:14.681Z,46.70
2022-12-08T12:45:21.853Z,46.81
2022-12-08T12:46:23.411Z,46.52
2022-12-08T12:47:57.855Z,46.67
2022-12-08T12:49:38.143Z,46.98
2022-12-08T12:50:44.885Z,46.92
2022-12-08T12:51:47.566Z,46.96
2022-12-08T12:52:49.305Z,46.69
2022-12-08T12:53:51.003Z,46.66
2022-12-08T12:54:52.923Z,46.67
2022-12-08T12:55:55.694Z,46.71
2022-12-08T12:57:18.434Z,46.83
2022-12-08T12:58:42.811Z,46.68
2022-12-08T12:59:55.794Z,46.37
2022-12-08T13:01:20.503Z,46.76
2022-12-08T13:02:25.202Z,46.41
2022-12-08T13:03:28.238Z,46.49
2022-12-08T13:04:35.388Z,46.60
2022-12-08T13:05:50.330Z,46.93
2022-12-08T13:06:52.274Z,46.63
2022-12-08T13:08:18.299Z,46.55
2022-12-08T13:09:29.252Z,46.81
2022-12-08T13:10:34.436Z,46.78
2022-12-08T13:11:51.593Z,46.49
2022-12-08T13:13:12.645Z,46.86
2022-12-08T13:14:29.674Z,46.75
2022-12-08T13:15:52.875Z,46.72
2022-12-08T13:16:57.669Z,46.66
2022-12-08T13:17:59.399Z,46.68
2022-12-08T13:19:05.119Z,46.86
2022-12-08T13:20:17.421Z,46.70
2022-12-08T13:21:23.519Z,46.80
2022-12-08T13:22:54.196Z,46.55
2022-12-08T13:24:10.657Z,46.88
2022-12-08T13:25:39.993Z,47.19
2022-12-08T13:27:11.141Z,47.04
2022-12-08T13:28:15.740Z,46.95
2022-12-08T13:29:20.255Z,46.85
2022-12-08T13:30:43.164Z,47.25
2022-12-08T13:31:50.500Z,47.05
2022-12-08T13:34:41.862Z,47.03
2022-12-08T13:35:50.552Z,46.76
2022-12-08T13:37:10.541Z,46.78
2022-12-08T13:38:17.436Z,46.71
2022-12-08T13:39:29.259Z,46.86
2022-12-08T13:40:34.407Z,46.44
2022-12-08T13:41:40.139Z,46.67
2022-12-08T13:42:50.922Z,46.67
2022-12-08T13:45:17.874Z,46.74
2022-12-08T13:46:20.167Z,46.65
2022-12-08T13:47:31.533Z,46.60
2022-12-08T13:49:52.680Z,46.50
2022-12-08T13:57:28.731Z,46.82
2022-12-08T13:58:33.519Z,46.74
2022-12-08T13:59:35.559Z,46.71
2022-12-08T14:00:37.205Z,46.78
2022-12-08T14:01:44.851Z,46.88
2022-12-08T14:02:49.028Z,46.81
2022-12-08T14:04:30.946Z,47.11
2022-12-08T14:05:40.601Z,47.19
2022-12-08T14:06:58.245Z,47.28
2022-12-08T14:08:00.373Z,47.54
2022-12-08T14:09:10.629Z,47.65
2022-12-08T14:10:23.649Z,47.66
2022-12-08T14:11:37.785Z,47.33
2022-12-08T14:12:43.935Z,47.58
2022-12-08T14:13:45.599Z,47.63
2022-12-08T14:15:06.024Z,47.67
2022-12-08T14:16:26.880Z,47.47
2022-12-08T14:17:28.983Z,47.59
2022-12-08T14:18:31.833Z,47.65
2022-12-08T14:19:35.202Z,47.37
2022-12-08T14:20:52.251Z,47.21
2022-12-08T14:22:02.130Z,47.21
2022-12-08T14:23:07.187Z,47.45
2022-12-08T14:24:11.206Z,47.21
2022-12-08T14:25:16.997Z,47.35
2022-12-08T14:26:18.584Z,47.43
2022-12-08T14:27:26.524Z,47.19
2022-12-08T14:28:28.645Z,47.35
2022-12-08T14:29:40.387Z,47.55